Keyes, OK (73947)

6:28 AM CDT on September 21, 2014 (GMT -0500)
Fort Wiegers | Change Station
CLOSE
Current Station
Personal Weather Station
Location: Elkhart, KS
Elevation: 3554 ft
Nearby Weather Stations

Elev 3554 ft 37.04 °N, 101.97 °W | Updated 0 second ago

Clear
Clear
61.8 °F
Feels Like 61.8 °F
N
3.0
Wind Variable Wind from NE
Gusts 7.0 mph

Today
High -- | Low -- °F
--% Chance of Precip.
Yesterday
High -- | Low -- °F
Precip. -- in
7:36 AM 7:47 PM
Waning Crescent, 7% visible
Pressure 30.03 in
Visibility 10.0 miles
Clouds Clear
Dew Point 58 °F
Humidity 86%
Rainfall 0.00 in
Snow Depth Not available.
UV 0 out of 12
Pollen 8.40 out of 12
Air Quality Not available.
Flu Activity Not available.
METAR KGUY 211053Z AUTO 02008KT 10SM CLR 18/17 A3017 RMK AO2 SLP168 T01830172

More Conditions Fewer Conditions

Pressure 30.03 in
Visibility 10.0 miles
Clouds Clear
Dew Point 58 °F
Humidity 86%
Rainfall 0.00 in
Snow Depth Not available.
UV 0 out of 12
Pollen 8.40 out of 12
Air Quality Not available.
Flu Activity Not available.
METAR KGUY 211053Z AUTO 02008KT 10SM CLR 18/17 A3017 RMK AO2 SLP168 T01830172

More Conditions Fewer Conditions

10-Day Weather Forecast

Almanac

Astronomy

Sep. 21, 2014 Rise Set
Actual Time 7:36 AM CDT 7:47 PM CDT
Civil Twilight 7:10 AM CDT 8:13 PM CDT
Nautical Twilight 6:39 AM CDT 8:43 PM CDT
Astronomical Twilight 6:09 AM CDT 9:14 PM CDT
Moon 5:14 AM CDT 6:22 PM CDT
Length of Visible Light 13h 02m
Length of Day
12h 11m
Tomorrow will be 2m 20s shorter.
Waning Crescent, 7% of the Moon is Illuminated
Today
Waning Crescent
Sep 24
New
Oct 1
First Quarter
Oct 8
Full
Oct 15
Last Quarter

Today's Extremes

State Highs State Lows

Community

WunderPhotos

Upload Photos

1,755,122 photos uploaded!

Nearby

Snow Depth

Station Depth Elevation
No new snow has been reported.

Earthquake Activity

City Distance Mag. Time & Date
No recent earthquake activity has been reported nearby.
Minimum magnitude displayed is 2.5.

Coastal Water Temperatures

Place Temperature
No Stations Reporting

Nearby Weather Stations